Time;durP1;ratioP1;P1;durP2;ratioP2;P2;SDS_P1;SDS_P2;PMS_P1;PMS_P2;Temp;Humidity;BMP_temperature;BMP_pressure;BME280_temperature;BME280_humidity;BME280_pressure;Samples;Min_cycle;Max_cycle;Signal;HPM_P1;HPM_P2
2022/03/29 00:00:21;;;;;;;61.80;38.93;;;;;;;7.12;100.00;98567.53;2081672;28;20191;-73
2022/03/29 00:01:23;;;;;;;60.03;38.97;;;;;;;7.06;100.00;98558.06;2082370;28;20227;-73
2022/03/29 00:02:27;;;;;;;56.92;39.88;;;;;;;6.97;100.00;98549.16;2089875;28;20191;-73
2022/03/29 00:03:29;;;;;;;59.88;39.58;;;;;;;6.91;100.00;98543.13;2090217;28;20252;-73
2022/03/29 00:04:32;;;;;;;54.88;37.65;;;;;;;6.86;100.00;98550.34;2089864;28;20203;-73
2022/03/29 00:05:33;;;;;;;63.50;40.25;;;;;;;6.78;100.00;98541.19;2089772;28;20226;-73
2022/03/29 00:06:35;;;;;;;59.13;37.30;;;;;;;6.72;100.00;98532.50;2081240;28;20230;-73
2022/03/29 00:07:36;;;;;;;60.03;38.40;;;;;;;6.67;100.00;98529.91;2089979;28;20868;-73
2022/03/29 00:08:40;;;;;;;59.25;37.88;;;;;;;6.61;100.00;98531.03;2090761;28;20650;-73
2022/03/29 00:09:42;;;;;;;58.63;37.25;;;;;;;6.55;100.00;98526.88;2089721;28;20211;-73
2022/03/29 00:10:45;;;;;;;56.83;37.10;;;;;;;6.53;100.00;98525.56;2090185;28;20217;-73
2022/03/29 00:11:47;;;;;;;52.72;36.45;;;;;;;6.49;100.00;98525.34;2090519;28;20200;-73
2022/03/29 00:12:53;;;;;;;56.42;37.30;;;;;;;6.44;100.00;98520.91;2089645;28;20765;-73
2022/03/29 00:13:55;;;;;;;63.70;38.83;;;;;;;6.43;100.00;98527.28;2090112;28;20263;-73
2022/03/29 00:14:57;;;;;;;61.17;39.67;;;;;;;6.41;100.00;98523.28;2090551;28;20611;-73
2022/03/29 00:15:58;;;;;;;65.82;39.78;;;;;;;6.43;100.00;98521.19;2090499;28;20197;-73
2022/03/29 00:17:02;;;;;;;64.67;41.93;;;;;;;6.45;100.00;98521.69;2089709;28;20257;-73
2022/03/29 00:18:04;;;;;;;61.22;40.60;;;;;;;6.46;100.00;98518.75;2089870;28;20247;-73
2022/03/29 00:19:06;;;;;;;66.65;41.13;;;;;;;6.50;100.00;98511.00;2089632;28;20249;-73
2022/03/29 00:20:10;;;;;;;61.10;40.20;;;;;;;6.54;100.00;98511.25;2090080;28;20257;-73
2022/03/29 00:21:12;;;;;;;72.30;41.75;;;;;;;6.57;100.00;98514.13;2090005;28;20712;-73
2022/03/29 00:22:13;;;;;;;61.50;40.00;;;;;;;6.60;100.00;98512.75;2090647;28;20195;-73
2022/03/29 00:23:18;;;;;;;66.13;41.88;;;;;;;6.63;100.00;98513.00;2090656;28;20321;-73
2022/03/29 00:24:20;;;;;;;63.38;41.33;;;;;;;6.65;100.00;98516.13;2089671;28;20295;-73
2022/03/29 00:25:22;;;;;;;60.75;40.92;;;;;;;6.69;100.00;98511.88;2089689;28;20213;-73
2022/03/29 00:26:24;;;;;;;72.70;41.28;;;;;;;6.70;100.00;98518.75;2089848;28;20226;-72
2022/03/29 00:27:26;;;;;;;69.15;41.53;;;;;;;6.73;100.00;98507.56;2090528;28;20257;-73
2022/03/29 00:28:29;;;;;;;60.58;39.22;;;;;;;6.77;100.00;98515.72;2089749;28;20198;-73
2022/03/29 00:29:31;;;;;;;66.45;39.38;;;;;;;6.79;100.00;98511.72;2081518;28;20316;-73
2022/03/29 00:30:37;;;;;;;62.83;37.45;;;;;;;6.90;100.00;98511.59;2081682;28;20301;-73
2022/03/29 00:31:38;;;;;;;60.00;37.70;;;;;;;6.98;100.00;98509.09;2090030;28;20641;-72
2022/03/29 00:32:42;;;;;;;59.33;38.90;;;;;;;7.08;100.00;98501.00;2089505;28;20376;-73
2022/03/29 00:33:43;;;;;;;60.17;38.70;;;;;;;7.12;100.00;98503.06;2089986;28;20220;-72
2022/03/29 00:34:45;;;;;;;62.72;41.05;;;;;;;7.13;100.00;98505.47;2089467;28;20199;-73
2022/03/29 00:35:47;;;;;;;64.70;39.78;;;;;;;7.18;100.00;98504.59;2089126;28;20226;-73
2022/03/29 00:36:49;;;;;;;63.00;39.22;;;;;;;7.21;100.00;98498.69;2089728;28;20218;-73
2022/03/29 00:37:51;;;;;;;66.75;38.72;;;;;;;7.22;100.00;98500.31;2090583;28;20191;-73
2022/03/29 00:38:54;;;;;;;64.45;39.13;;;;;;;7.23;100.00;98499.22;2090528;28;20613;-73
2022/03/29 00:39:55;;;;;;;58.33;39.20;;;;;;;7.22;100.00;98501.09;2090375;28;20662;-73
2022/03/29 00:41:00;;;;;;;59.53;37.33;;;;;;;7.23;100.00;98486.75;2090432;28;20191;-73
2022/03/29 00:42:03;;;;;;;65.22;39.13;;;;;;;7.15;100.00;98476.78;2089699;28;20202;-73
2022/03/29 00:43:08;;;;;;;55.70;37.70;;;;;;;7.14;100.00;98480.50;2089837;28;20229;-73
2022/03/29 00:44:09;;;;;;;56.05;37.22;;;;;;;7.08;100.00;98479.78;2089883;28;20182;-73
2022/03/29 00:45:14;;;;;;;62.53;37.70;;;;;;;7.06;100.00;98473.19;2090291;28;20270;-73
2022/03/29 00:46:15;;;;;;;60.20;37.20;;;;;;;7.00;100.00;98480.44;2089473;28;20274;-73
2022/03/29 00:47:18;;;;;;;65.55;39.13;;;;;;;6.98;100.00;98481.78;2089746;28;20187;-73
2022/03/29 00:48:20;;;;;;;64.35;39.88;;;;;;;6.93;100.00;98468.59;2090066;28;20231;-73
2022/03/29 00:49:24;;;;;;;60.40;39.78;;;;;;;6.93;100.00;98476.53;2090315;28;20195;-73
2022/03/29 00:50:27;;;;;;;60.45;40.38;;;;;;;6.90;100.00;98469.97;2089643;28;20195;-73
2022/03/29 00:51:29;;;;;;;67.07;43.08;;;;;;;6.91;100.00;98473.41;2089321;28;20231;-73
2022/03/29 00:52:32;;;;;;;66.85;41.08;;;;;;;6.91;100.00;98486.66;2090353;28;20587;-73
2022/03/29 00:53:33;;;;;;;60.65;40.63;;;;;;;6.89;100.00;98497.56;2089784;28;20252;-73
2022/03/29 00:54:37;;;;;;;52.60;39.03;;;;;;;6.97;100.00;98496.13;2089632;28;20670;-73
2022/03/29 00:55:39;;;;;;;58.92;39.80;;;;;;;7.09;100.00;98509.75;2090315;28;20658;-73
2022/03/29 00:56:43;;;;;;;66.90;42.38;;;;;;;7.21;100.00;98522.56;2090374;28;20707;-73
2022/03/29 00:57:45;;;;;;;64.53;40.00;;;;;;;7.28;100.00;98518.50;2089476;28;20214;-73
2022/03/29 00:58:48;;;;;;;61.95;40.33;;;;;;;7.33;100.00;98520.28;2089701;28;20191;-73
2022/03/29 00:59:50;;;;;;;65.90;40.90;;;;;;;7.36;100.00;98517.84;2090238;28;20194;-73
2022/03/29 01:00:53;;;;;;;61.20;40.38;;;;;;;7.44;100.00;98521.72;2089546;28;20286;-73
2022/03/29 01:01:57;;;;;;;68.72;40.25;;;;;;;7.45;100.00;98517.97;2089794;28;20230;-73
2022/03/29 01:03:01;;;;;;;64.65;40.47;;;;;;;7.49;100.00;98518.22;2090259;28;20187;-73
2022/03/29 01:04:06;;;;;;;63.10;40.88;;;;;;;7.51;99.75;98516.06;2089547;28;20703;-73
2022/03/29 01:05:09;;;;;;;65.22;40.85;;;;;;;7.50;99.27;98507.31;2089685;28;20244;-73
2022/03/29 01:06:10;;;;;;;59.83;39.22;;;;;;;7.54;99.34;98502.19;2089108;28;20242;-73
2022/03/29 01:07:15;;;;;;;62.85;40.65;;;;;;;7.58;100.00;98495.25;2089642;28;20191;-73
2022/03/29 01:08:18;;;;;;;64.55;41.17;;;;;;;7.54;100.00;98479.09;2089460;28;20738;-73
2022/03/29 01:09:19;;;;;;;60.25;40.40;;;;;;;7.50;100.00;98477.31;2081337;28;20745;-73
2022/03/29 01:10:22;;;;;;;65.35;39.97;;;;;;;7.49;100.00;98486.38;2089635;28;20220;-73
2022/03/29 01:11:23;;;;;;;61.97;41.33;;;;;;;7.42;100.00;98478.75;2090252;28;20191;-73
2022/03/29 01:12:25;;;;;;;64.53;41.28;;;;;;;7.37;100.00;98470.88;2090076;28;20599;-73
2022/03/29 01:13:26;;;;;;;61.50;41.30;;;;;;;7.35;100.00;98470.38;2090170;28;20278;-73
2022/03/29 01:14:29;;;;;;;65.53;41.30;;;;;;;7.31;100.00;98467.53;2089506;28;20199;-73
2022/03/29 01:15:34;;;;;;;71.18;41.35;;;;;;;7.27;100.00;98458.53;2089655;28;20248;-74
2022/03/29 01:17:55;;;;;;;67.18;40.83;;;;;;;7.13;100.00;98468.31;2090251;28;20252;-73
2022/03/29 01:18:58;;;;;;;63.22;40.72;;;;;;;7.10;100.00;98468.88;2089512;28;20206;-73
2022/03/29 01:20:04;;;;;;;63.70;42.05;;;;;;;7.11;100.00;98481.06;2081369;28;20191;-73
2022/03/29 01:21:06;;;;;;;67.85;43.05;;;;;;;7.01;100.00;98478.56;2081852;28;21450;-73
2022/03/29 01:22:11;;;;;;;70.63;43.47;;;;;;;6.92;100.00;98470.47;2089177;28;20214;-73
2022/03/29 01:23:13;;;;;;;64.68;43.45;;;;;;;6.94;100.00;98480.78;2090154;28;20205;-73
2022/03/29 01:24:15;;;;;;;70.00;43.05;;;;;;;6.88;100.00;98476.63;2090148;28;20596;-73
2022/03/29 01:25:18;;;;;;;67.40;44.22;;;;;;;6.82;100.00;98483.84;2090397;28;20665;-73
2022/03/29 01:26:24;;;;;;;67.03;43.75;;;;;;;6.77;100.00;98483.91;2090376;28;20197;-74
2022/03/29 01:27:25;;;;;;;68.30;43.92;;;;;;;6.75;100.00;98481.53;2089482;28;20272;-73
2022/03/29 01:28:27;;;;;;;78.47;43.53;;;;;;;6.73;100.00;98475.75;2089588;28;20680;-73
2022/03/29 01:29:29;;;;;;;76.15;44.72;;;;;;;6.72;100.00;98465.44;2089359;28;20202;-73
2022/03/29 01:30:32;;;;;;;65.10;43.05;;;;;;;6.66;100.00;98472.66;2089564;28;20183;-74
2022/03/29 01:31:34;;;;;;;72.70;45.53;;;;;;;6.63;100.00;98472.44;2090184;28;20191;-74
2022/03/29 01:32:37;;;;;;;63.88;41.72;;;;;;;6.61;100.00;98479.91;2089843;28;20211;-73
2022/03/29 01:33:38;;;;;;;67.85;42.83;;;;;;;6.60;100.00;98487.03;2089366;28;20211;-73
2022/03/29 01:34:42;;;;;;;72.45;42.10;;;;;;;6.57;100.00;98484.16;2089567;28;20602;-73
2022/03/29 01:35:46;;;;;;;68.95;41.20;;;;;;;6.57;100.00;98484.97;2090211;28;20195;-73
2022/03/29 01:36:48;;;;;;;61.47;38.75;;;;;;;6.59;100.00;98471.41;2089956;28;20269;-73
2022/03/29 01:37:52;;;;;;;60.58;40.00;;;;;;;6.62;100.00;98465.56;2090137;28;20707;-74
2022/03/29 01:38:54;;;;;;;64.80;42.53;;;;;;;6.68;100.00;98459.91;2090084;28;20191;-74
2022/03/29 01:39:56;;;;;;;54.60;37.50;;;;;;;6.68;100.00;98462.53;2089411;28;20207;-74
2022/03/29 01:41:01;;;;;;;69.65;44.95;;;;;;;6.72;100.00;98457.47;2081193;28;20257;-73
2022/03/29 01:42:04;;;;;;;66.60;42.78;;;;;;;6.68;100.00;98451.16;2089670;28;20187;-74
2022/03/29 01:43:08;;;;;;;69.57;43.72;;;;;;;6.68;100.00;98451.16;2090068;28;20222;-73
2022/03/29 01:44:11;;;;;;;66.03;41.67;;;;;;;6.63;100.00;98448.59;2090376;28;20175;-73
2022/03/29 01:45:13;;;;;;;72.22;43.88;;;;;;;6.61;100.00;98440.94;2090294;28;20216;-73
2022/03/29 01:46:14;;;;;;;70.60;43.45;;;;;;;6.57;100.00;98439.91;2089267;28;20765;-73
2022/03/29 01:47:21;;;;;;;71.07;43.08;;;;;;;6.54;100.00;98445.78;2082531;28;20752;-74
2022/03/29 01:48:24;;;;;;;68.95;43.15;;;;;;;6.48;100.00;98444.25;2090919;28;20231;-73
2022/03/29 01:49:27;;;;;;;62.67;39.78;;;;;;;6.45;100.00;98445.63;2091068;28;20191;-73
2022/03/29 01:50:29;;;;;;;64.75;38.75;;;;;;;6.45;100.00;98447.50;2091080;28;20285;-74
2022/03/29 01:51:31;;;;;;;64.95;41.67;;;;;;;6.48;100.00;98441.59;2091368;28;20708;-73
2022/03/29 01:52:39;;;;;;;65.57;42.22;;;;;;;6.47;100.00;98445.34;2091539;28;20191;-73
2022/03/29 01:53:42;;;;;;;65.20;40.40;;;;;;;6.49;100.00;98443.19;2091823;28;20653;-73
2022/03/29 01:54:44;;;;;;;64.28;40.72;;;;;;;6.47;100.00;98438.19;2091610;28;20187;-74
2022/03/29 01:55:48;;;;;;;59.92;38.47;;;;;;;6.55;100.00;98435.97;2091535;28;20191;-73
2022/03/29 01:56:52;;;;;;;55.72;38.28;;;;;;;6.63;100.00;98427.38;2090879;28;20240;-73
2022/03/29 01:57:53;;;;;;;55.58;36.80;;;;;;;6.68;100.00;98436.03;2091176;28;20202;-73
2022/03/29 01:58:55;;;;;;;55.20;36.17;;;;;;;6.78;100.00;98435.94;2091601;28;20193;-73
2022/03/29 02:01:19;;;;;;;54.00;34.97;;;;;;;6.79;100.00;98457.94;2091589;28;20209;-73
2022/03/29 02:02:21;;;;;;;53.95;35.15;;;;;;;6.82;100.00;98456.56;2090796;28;20207;-74
2022/03/29 02:03:23;;;;;;;51.10;35.72;;;;;;;6.86;100.00;98453.03;2090911;28;20187;-74
2022/03/29 02:04:24;;;;;;;56.78;36.13;;;;;;;6.91;100.00;98455.63;2090805;28;20234;-73
2022/03/29 02:05:26;;;;;;;56.07;36.77;;;;;;;7.04;100.00;98451.47;2090956;28;20225;-73
2022/03/29 02:06:29;;;;;;;59.38;37.40;;;;;;;7.09;100.00;98443.44;2091181;28;20679;-73
2022/03/29 02:07:30;;;;;;;51.58;36.67;;;;;;;7.20;100.00;98447.50;2090758;28;20199;-73
2022/03/29 02:08:32;;;;;;;53.47;38.03;;;;;;;7.25;100.00;98449.31;2090835;28;20733;-73
2022/03/29 02:09:35;;;;;;;55.33;38.25;;;;;;;7.33;100.00;98438.81;2091067;28;20194;-73
2022/03/29 02:10:40;;;;;;;56.33;36.20;;;;;;;7.36;100.00;98434.78;2090839;28;20276;-73
2022/03/29 02:11:41;;;;;;;58.85;36.22;;;;;;;7.37;100.00;98437.16;2090792;28;20696;-73
2022/03/29 02:12:44;;;;;;;57.67;37.42;;;;;;;7.39;100.00;98428.13;2090706;28;20183;-73
2022/03/29 02:13:45;;;;;;;56.40;38.58;;;;;;;7.39;100.00;98433.44;2091469;28;20561;-73
2022/03/29 02:14:48;;;;;;;58.40;38.17;;;;;;;7.41;100.00;98431.28;2091458;28;20197;-73
2022/03/29 02:15:50;;;;;;;55.90;37.55;;;;;;;7.43;100.00;98427.25;2090724;28;20199;-73
2022/03/29 02:16:51;;;;;;;55.58;38.33;;;;;;;7.49;100.00;98433.28;2090834;28;20198;-73
2022/03/29 02:17:53;;;;;;;59.33;38.88;;;;;;;7.52;100.00;98422.84;2090601;28;20203;-73
2022/03/29 02:18:55;;;;;;;61.60;38.35;;;;;;;7.55;100.00;98434.75;2082497;28;20290;-74
2022/03/29 02:19:58;;;;;;;56.83;37.92;;;;;;;7.57;100.00;98429.97;2091003;28;20191;-73
2022/03/29 02:21:00;;;;;;;56.80;36.67;;;;;;;7.59;100.00;98438.41;2091025;28;20227;-73
2022/03/29 02:22:02;;;;;;;59.83;36.90;;;;;;;7.60;100.00;98434.69;2090688;28;20203;-73
2022/03/29 02:23:06;;;;;;;62.17;38.80;;;;;;;7.60;100.00;98430.16;2082387;28;20299;-73
2022/03/29 02:24:07;;;;;;;56.25;37.13;;;;;;;7.62;100.00;98435.16;2090842;28;20198;-73
2022/03/29 02:25:12;;;;;;;62.20;38.58;;;;;;;7.61;100.00;98437.03;2090575;28;20673;-73
2022/03/29 02:26:13;;;;;;;69.30;39.40;;;;;;;7.64;100.00;98436.47;2090951;28;20720;-73
2022/03/29 02:27:15;;;;;;;67.38;40.90;;;;;;;7.68;100.00;98434.00;2091294;28;20187;-73
2022/03/29 02:28:18;;;;;;;64.22;39.97;;;;;;;7.75;100.00;98439.72;2091297;28;20206;-73
2022/03/29 02:29:19;;;;;;;62.90;40.00;;;;;;;7.86;100.00;98443.00;2091332;28;20203;-73
2022/03/29 02:30:21;;;;;;;62.95;39.67;;;;;;;7.90;100.00;98444.75;2091196;28;20215;-73
2022/03/29 02:31:22;;;;;;;61.97;39.78;;;;;;;7.97;100.00;98435.63;2090586;28;20206;-73
2022/03/29 02:32:24;;;;;;;62.38;40.90;;;;;;;8.00;100.00;98437.72;2090736;28;20198;-73
2022/03/29 02:33:25;;;;;;;60.03;40.13;;;;;;;8.03;100.00;98429.94;2091251;28;20213;-73
2022/03/29 02:34:28;;;;;;;60.28;41.00;;;;;;;8.05;100.00;98429.63;2091345;28;20191;-73
2022/03/29 02:35:29;;;;;;;68.07;41.03;;;;;;;8.10;100.00;98434.84;2090551;28;20207;-73
2022/03/29 02:36:33;;;;;;;64.43;40.30;;;;;;;8.10;100.00;98438.28;2090222;28;20650;-73
2022/03/29 02:37:34;;;;;;;62.83;40.03;;;;;;;8.08;100.00;98440.47;2090542;28;20202;-73
2022/03/29 02:38:36;;;;;;;59.42;39.53;;;;;;;8.05;100.00;98432.28;2090655;28;20187;-73
2022/03/29 02:39:37;;;;;;;59.92;38.92;;;;;;;8.01;100.00;98426.00;2090498;28;20198;-73
2022/03/29 02:40:40;;;;;;;58.90;38.63;;;;;;;8.00;100.00;98435.84;2090579;28;20195;-73
2022/03/29 02:41:42;;;;;;;63.25;38.55;;;;;;;7.98;100.00;98426.56;2090596;28;20587;-73
2022/03/29 02:42:46;;;;;;;60.78;37.92;;;;;;;8.01;100.00;98428.66;2090391;28;20195;-73
2022/03/29 02:43:47;;;;;;;58.95;38.70;;;;;;;8.00;100.00;98435.84;2082948;28;20211;-73
2022/03/29 02:44:49;;;;;;;61.87;40.10;;;;;;;7.97;100.00;98441.72;2090619;28;20183;-73
2022/03/29 02:45:50;;;;;;;65.65;39.25;;;;;;;7.96;100.00;98442.00;2090708;28;20207;-73
2022/03/29 02:46:52;;;;;;;65.22;40.67;;;;;;;7.96;100.00;98442.00;2090536;28;20195;-73
2022/03/29 02:47:56;;;;;;;59.35;39.25;;;;;;;7.94;100.00;98444.97;2091082;28;20187;-73
2022/03/29 02:48:57;;;;;;;56.60;38.53;;;;;;;7.95;100.00;98443.88;2091031;28;20223;-74
2022/03/29 02:49:59;;;;;;;55.95;38.15;;;;;;;7.90;100.00;98436.78;2091224;28;20252;-74
2022/03/29 02:51:00;;;;;;;62.55;38.97;;;;;;;7.90;100.00;98444.75;2090678;28;20198;-73
2022/03/29 02:52:02;;;;;;;63.40;39.03;;;;;;;7.90;100.00;98446.63;2091382;28;20228;-73
2022/03/29 02:53:04;;;;;;;57.15;37.25;;;;;;;7.89;100.00;98434.44;2090966;28;20199;-73
2022/03/29 02:54:08;;;;;;;54.88;38.53;;;;;;;7.90;100.00;98442.09;2090431;28;20203;-73
2022/03/29 02:55:09;;;;;;;55.30;38.58;;;;;;;7.90;100.00;98433.34;2090545;28;20230;-73
2022/03/29 02:56:13;;;;;;;59.50;39.17;;;;;;;7.94;100.00;98432.47;2091358;28;20195;-73
2022/03/29 02:57:15;;;;;;;58.88;38.25;;;;;;;7.91;100.00;98422.44;2090893;28;20522;-73
2022/03/29 02:58:17;;;;;;;55.15;37.72;;;;;;;7.91;100.00;98427.75;2090932;28;20625;-73
2022/03/29 02:59:18;;;;;;;63.55;39.63;;;;;;;7.89;100.00;98423.81;2091069;28;20194;-74
2022/03/29 03:00:21;;;;;;;60.58;37.20;;;;;;;7.89;100.00;98421.94;2090642;28;20223;-73
2022/03/29 03:01:23;;;;;;;56.88;38.03;;;;;;;7.88;100.00;98417.69;2090477;28;20570;-73
2022/03/29 03:02:24;;;;;;;53.50;35.85;;;;;;;7.89;100.00;98416.63;2090363;28;20675;-73
2022/03/29 03:03:29;;;;;;;51.97;37.00;;;;;;;7.91;100.00;98419.78;2082132;28;20192;-73
2022/03/29 03:04:29;;;;;;;55.97;37.03;;;;;;;7.93;100.00;98407.00;2090390;28;20195;-73
2022/03/29 03:05:32;;;;;;;49.90;36.03;;;;;;;7.96;100.00;98410.13;2091156;28;20198;-73
2022/03/29 03:06:33;;;;;;;54.00;36.60;;;;;;;8.04;100.00;98417.44;2089886;28;20214;-74
2022/03/29 03:07:35;;;;;;;49.10;36.25;;;;;;;8.05;100.00;98411.03;2090524;28;20195;-73
2022/03/29 03:08:36;;;;;;;53.17;36.22;;;;;;;8.08;100.00;98418.41;2082249;28;20203;-73
2022/03/29 03:09:39;;;;;;;52.22;37.30;;;;;;;8.09;100.00;98414.69;2090334;28;20198;-73
2022/03/29 03:10:40;;;;;;;52.83;36.75;;;;;;;8.09;100.00;98420.00;2090904;28;20223;-74
2022/03/29 03:11:44;;;;;;;54.40;36.67;;;;;;;8.10;100.00;98417.03;2090955;28;20266;-74
2022/03/29 03:12:49;;;;;;;54.17;37.63;;;;;;;8.09;100.00;98418.13;2090251;28;20222;-74
2022/03/29 03:13:53;;;;;;;48.35;35.55;;;;;;;8.09;100.00;98417.34;2082213;28;20635;-73
2022/03/29 03:14:54;;;;;;;52.58;36.90;;;;;;;8.08;100.00;98410.44;2082714;28;20207;-74
2022/03/29 03:15:57;;;;;;;52.63;36.73;;;;;;;8.07;100.00;98422.13;2090378;28;20195;-73
2022/03/29 03:16:59;;;;;;;55.97;37.28;;;;;;;8.07;100.00;98419.47;2090153;28;21020;-74
2022/03/29 03:18:01;;;;;;;54.35;37.17;;;;;;;8.06;100.00;98404.63;2090541;28;20626;-73
2022/03/29 03:19:03;;;;;;;52.78;36.88;;;;;;;8.07;100.00;98411.50;2090900;28;20244;-73
2022/03/29 03:20:11;;;;;;;55.60;36.75;;;;;;;8.07;100.00;98406.19;2090938;28;20198;-73
2022/03/29 03:21:12;;;;;;;48.78;36.53;;;;;;;8.10;100.00;98414.38;2090631;28;20280;-73
2022/03/29 03:22:15;;;;;;;54.47;35.55;;;;;;;8.10;100.00;98403.75;2090269;28;20214;-73
2022/03/29 03:23:16;;;;;;;53.05;37.25;;;;;;;8.16;100.00;98405.22;2090341;28;20582;-73
2022/03/29 03:24:18;;;;;;;53.25;37.65;;;;;;;8.15;100.00;98403.63;2090563;28;20373;-73
2022/03/29 03:25:20;;;;;;;50.97;36.63;;;;;;;8.18;100.00;98402.28;2090277;28;20190;-73
2022/03/29 03:26:24;;;;;;;54.40;37.70;;;;;;;8.18;100.00;98404.94;2090039;28;20598;-74
2022/03/29 03:27:27;;;;;;;55.63;36.63;;;;;;;8.18;100.00;98396.97;2090282;28;20623;-74
2022/03/29 03:28:29;;;;;;;54.38;35.97;;;;;;;8.18;100.00;98397.75;2090092;28;20194;-73
2022/03/29 03:29:30;;;;;;;52.88;36.90;;;;;;;8.17;100.00;98400.72;2081952;28;20195;-73
2022/03/29 03:30:33;;;;;;;50.50;35.03;;;;;;;8.15;100.00;98397.53;2090276;28;20191;-73
2022/03/29 03:31:35;;;;;;;50.30;34.10;;;;;;;8.17;100.00;98398.06;2090844;28;20274;-73
2022/03/29 03:32:37;;;;;;;49.40;35.13;;;;;;;8.17;100.00;98395.41;2089912;28;20305;-73
2022/03/29 03:33:41;;;;;;;52.72;36.63;;;;;;;8.19;100.00;98409.97;2090148;28;20268;-73
2022/03/29 03:34:42;;;;;;;51.08;35.17;;;;;;;8.19;100.00;98401.19;2090341;28;20202;-73
2022/03/29 03:35:44;;;;;;;45.80;34.50;;;;;;;8.18;100.00;98402.28;2090142;28;20187;-73
2022/03/29 03:36:47;;;;;;;51.50;36.13;;;;;;;8.19;100.00;98403.84;2089746;28;20222;-74
2022/03/29 03:37:49;;;;;;;54.47;36.03;;;;;;;8.19;100.00;98395.88;2090479;28;20191;-74
2022/03/29 03:38:51;;;;;;;53.15;35.55;;;;;;;8.23;100.00;98396.84;2090965;28;20183;-73
2022/03/29 03:39:53;;;;;;;47.55;35.10;;;;;;;8.24;100.00;98393.09;2089875;28;20203;-74
2022/03/29 03:40:55;;;;;;;53.85;36.85;;;;;;;8.27;100.00;98405.81;2081834;28;20199;-74
2022/03/29 03:41:56;;;;;;;51.92;34.70;;;;;;;8.25;100.00;98400.00;2090103;28;20187;-73
2022/03/29 03:43:02;;;;;;;47.58;34.13;;;;;;;8.26;100.00;98409.56;2089973;28;20294;-73
2022/03/29 03:44:04;;;;;;;47.22;34.80;;;;;;;8.24;100.00;98398.41;2082628;28;20282;-73
2022/03/29 03:45:08;;;;;;;52.92;34.00;;;;;;;8.25;100.00;98397.34;2081829;28;20254;-73
2022/03/29 03:46:10;;;;;;;46.50;34.63;;;;;;;8.27;100.00;98400.50;2090137;28;20195;-73
2022/03/29 03:47:13;;;;;;;48.10;34.50;;;;;;;8.26;100.00;98387.53;2090251;28;20195;-72
2022/03/29 03:48:16;;;;;;;51.58;35.17;;;;;;;8.31;100.00;98398.81;2090306;28;20191;-72
2022/03/29 03:49:18;;;;;;;47.03;33.17;;;;;;;8.34;100.00;98394.78;2090057;28;20234;-73
2022/03/29 03:50:20;;;;;;;45.20;34.65;;;;;;;8.31;100.00;98396.16;2081807;28;20200;-73
2022/03/29 03:51:23;;;;;;;46.45;36.33;;;;;;;8.30;100.00;98396.47;2081267;28;20594;-73
2022/03/29 03:52:25;;;;;;;46.45;33.90;;;;;;;8.29;100.00;98387.69;2090023;28;20678;-72
2022/03/29 03:53:29;;;;;;;54.17;36.22;;;;;;;8.24;100.00;98395.75;2090479;28;20194;-73
2022/03/29 03:54:31;;;;;;;48.58;34.83;;;;;;;8.24;100.00;98387.78;2090581;28;20203;-73
2022/03/29 03:55:33;;;;;;;49.83;34.20;;;;;;;8.20;100.00;98384.16;2090275;28;20203;-73
2022/03/29 03:56:35;;;;;;;46.83;33.13;;;;;;;8.19;100.00;98387.91;2090071;28;20195;-73
2022/03/29 03:57:38;;;;;;;51.88;36.53;;;;;;;8.17;100.00;98382.13;2090572;28;20194;-73
2022/03/29 03:58:40;;;;;;;52.40;35.83;;;;;;;8.16;100.00;98388.47;2090184;28;20225;-73
2022/03/29 03:59:44;;;;;;;47.30;34.35;;;;;;;8.11;100.00;98384.06;2090084;28;20278;-73
2022/03/29 04:00:47;;;;;;;50.38;35.05;;;;;;;8.11;100.00;98381.41;2090617;28;20218;-73
2022/03/29 04:01:49;;;;;;;48.35;35.00;;;;;;;8.08;100.00;98373.22;2089779;28;20302;-73
2022/03/29 04:02:54;;;;;;;49.20;34.40;;;;;;;8.08;100.00;98379.38;2081639;28;20624;-73
2022/03/29 04:03:55;;;;;;;50.70;34.88;;;;;;;8.09;100.00;98378.28;2082104;28;20204;-73
2022/03/29 04:04:58;;;;;;;47.30;33.83;;;;;;;8.05;100.00;98371.19;2081608;28;20294;-73
2022/03/29 04:06:00;;;;;;;55.00;35.75;;;;;;;8.03;100.00;98368.03;2089413;28;20696;-73
2022/03/29 04:07:02;;;;;;;47.15;34.85;;;;;;;8.00;100.00;98371.28;2090792;28;20172;-73
2022/03/29 04:08:05;;;;;;;54.35;36.28;;;;;;;7.97;100.00;98375.31;2090213;28;20203;-73
2022/03/29 04:09:06;;;;;;;49.60;34.55;;;;;;;7.94;100.00;98371.38;2089596;28;20226;-73
2022/03/29 04:10:10;;;;;;;58.57;36.20;;;;;;;7.92;100.00;98370.91;2081373;28;20191;-73
2022/03/29 04:11:11;;;;;;;50.88;36.47;;;;;;;7.93;100.00;98377.00;2090000;28;20432;-73
2022/03/29 04:12:15;;;;;;;48.00;36.63;;;;;;;7.88;100.00;98372.56;2090711;28;20191;-73
2022/03/29 04:13:19;;;;;;;47.15;35.72;;;;;;;7.88;100.00;98371.78;2089766;28;20203;-73
2022/03/29 04:14:24;;;;;;;53.47;36.80;;;;;;;7.88;100.00;98366.47;2081818;28;20265;-73
2022/03/29 04:15:26;;;;;;;49.65;34.45;;;;;;;7.87;100.00;98376.28;2089893;28;20194;-73
2022/03/29 04:16:29;;;;;;;44.83;35.35;;;;;;;7.88;100.00;98372.56;2090525;28;20191;-73
2022/03/29 04:17:31;;;;;;;57.58;36.15;;;;;;;7.88;100.00;98369.91;2089708;28;20211;-73
2022/03/29 04:18:34;;;;;;;46.10;33.97;;;;;;;7.90;100.00;98372.25;2082066;28;20234;-73
2022/03/29 04:19:38;;;;;;;52.47;34.05;;;;;;;7.87;100.00;98365.66;2081744;28;20203;-73
2022/03/29 04:20:40;;;;;;;51.17;34.15;;;;;;;7.85;100.00;98361.75;2090109;28;20199;-73
2022/03/29 04:21:43;;;;;;;50.58;34.60;;;;;;;7.83;100.00;98363.91;2090163;28;20248;-73
2022/03/29 04:22:44;;;;;;;46.70;34.65;;;;;;;7.85;100.00;98357.22;2089472;28;20281;-73
2022/03/29 04:23:46;;;;;;;46.60;34.45;;;;;;;7.88;100.00;98356.63;2081553;28;20200;-73
2022/03/29 04:24:48;;;;;;;44.28;34.10;;;;;;;7.86;100.00;98358.00;2082150;28;20205;-73
2022/03/29 04:25:50;;;;;;;43.08;33.95;;;;;;;7.88;100.00;98356.63;2081874;28;20199;-73
2022/03/29 04:26:53;;;;;;;43.60;33.75;;;;;;;7.92;100.00;98360.28;2089756;28;20237;-73
2022/03/29 04:27:57;;;;;;;44.33;34.10;;;;;;;7.91;100.00;98361.34;2089614;28;20632;-73
2022/03/29 04:28:58;;;;;;;50.78;32.95;;;;;;;7.93;100.00;98359.19;2089785;28;20649;-73
2022/03/29 04:30:02;;;;;;;43.50;33.17;;;;;;;7.93;100.00;98356.53;2090448;28;20564;-73
2022/03/29 04:31:04;;;;;;;47.70;33.97;;;;;;;7.94;100.00;98360.75;2090563;28;20229;-73
2022/03/29 04:32:09;;;;;;;48.90;34.33;;;;;;;7.91;100.00;98349.94;2090276;28;20206;-73
2022/03/29 04:33:15;;;;;;;51.53;34.17;;;;;;;7.97;100.00;98354.06;2090391;28;20171;-73
2022/03/29 04:34:17;;;;;;;50.67;34.05;;;;;;;7.99;100.00;98356.41;2090335;28;20279;-73
2022/03/29 04:35:20;;;;;;;46.78;34.28;;;;;;;8.00;100.00;98348.19;2089490;28;20227;-73
2022/03/29 04:36:21;;;;;;;42.10;33.55;;;;;;;8.04;100.00;98351.00;2089470;28;20251;-73
2022/03/29 04:37:24;;;;;;;44.88;33.88;;;;;;;8.07;100.00;98353.84;2089596;28;20199;-73
2022/03/29 04:38:26;;;;;;;47.75;33.58;;;;;;;8.07;100.00;98355.72;2081921;28;20270;-73
2022/03/29 04:39:30;;;;;;;41.72;32.78;;;;;;;8.12;100.00;98368.91;2081958;28;20611;-73
2022/03/29 04:40:32;;;;;;;42.55;32.42;;;;;;;8.15;100.00;98370.97;2081681;28;20260;-73
2022/03/29 04:41:34;;;;;;;47.00;33.50;;;;;;;8.22;100.00;98372.16;2089734;28;20194;-73
2022/03/29 04:42:42;;;;;;;46.72;32.75;;;;;;;8.25;100.00;98370.75;2089653;28;20199;-73
2022/03/29 04:43:45;;;;;;;43.53;32.70;;;;;;;8.31;100.00;98374.13;2089733;28;20723;-73
2022/03/29 04:44:47;;;;;;;41.13;31.45;;;;;;;8.36;100.00;98372.19;2088917;28;20693;-73
2022/03/29 04:45:52;;;;;;;43.05;31.33;;;;;;;8.41;100.00;98369.38;2089637;28;20233;-73
2022/03/29 04:46:54;;;;;;;43.33;30.77;;;;;;;8.43;100.00;98367.25;2089594;28;20206;-73
2022/03/29 04:47:59;;;;;;;47.30;30.67;;;;;;;8.45;100.00;98372.25;2089824;28;20190;-73
2022/03/29 04:49:00;;;;;;;46.53;32.35;;;;;;;8.46;100.00;98363.97;2089445;28;20234;-73
2022/03/29 04:50:04;;;;;;;37.35;30.50;;;;;;;8.48;100.00;98363.69;2081383;28;20283;-73